sensor_id;sensor_type;location;lat;lon;timestamp;pressure;altitude;pressure_sealevel;temperature;humidity
13312;BME280;34033;48.672;9.376;2023-02-15T00:00:52;99909.44;;;3.81;67.66
13312;BME280;34033;48.672;9.376;2023-02-15T00:03:20;99901.06;;;3.72;66.99
13312;BME280;34033;48.672;9.376;2023-02-15T00:05:46;99899.03;;;3.64;67.31
13312;BME280;34033;48.672;9.376;2023-02-15T00:08:11;99892.28;;;3.57;67.43
13312;BME280;34033;48.672;9.376;2023-02-15T00:10:36;99888.00;;;3.51;68.31
13312;BME280;34033;48.672;9.376;2023-02-15T00:13:01;99892.50;;;3.47;68.81
13312;BME280;34033;48.672;9.376;2023-02-15T00:15:27;99891.69;;;3.46;69.28
13312;BME280;34033;48.672;9.376;2023-02-15T00:17:52;99889.41;;;3.48;69.56
13312;BME280;34033;48.672;9.376;2023-02-15T00:20:17;99885.84;;;3.48;69.30
13312;BME280;34033;48.672;9.376;2023-02-15T00:22:44;99886.34;;;3.50;68.69
13312;BME280;34033;48.672;9.376;2023-02-15T00:25:09;99890.25;;;3.49;68.31
13312;BME280;34033;48.672;9.376;2023-02-15T00:27:34;99888.09;;;3.46;68.32
13312;BME280;34033;48.672;9.376;2023-02-15T00:30:00;99885.34;;;3.46;68.45
13312;BME280;34033;48.672;9.376;2023-02-15T00:32:25;99886.16;;;3.46;68.46
13312;BME280;34033;48.672;9.376;2023-02-15T00:34:50;99887.59;;;3.44;67.70
13312;BME280;34033;48.672;9.376;2023-02-15T00:37:16;99882.28;;;3.33;67.15
13312;BME280;34033;48.672;9.376;2023-02-15T00:39:41;99880.72;;;3.27;66.81
13312;BME280;34033;48.672;9.376;2023-02-15T00:42:07;99877.56;;;3.20;66.94
13312;BME280;34033;48.672;9.376;2023-02-15T00:44:32;99872.03;;;3.20;67.90
13312;BME280;34033;48.672;9.376;2023-02-15T00:46:57;99871.72;;;3.22;67.51
13312;BME280;34033;48.672;9.376;2023-02-15T00:49:23;99872.84;;;3.21;67.93
13312;BME280;34033;48.672;9.376;2023-02-15T00:51:48;99873.19;;;3.19;68.21
13312;BME280;34033;48.672;9.376;2023-02-15T00:54:13;99870.91;;;3.21;68.30
13312;BME280;34033;48.672;9.376;2023-02-15T00:56:39;99883.91;;;3.21;66.93
13312;BME280;34033;48.672;9.376;2023-02-15T00:59:04;99887.28;;;3.18;67.40
13312;BME280;34033;48.672;9.376;2023-02-15T01:01:29;99877.75;;;3.10;66.92
13312;BME280;34033;48.672;9.376;2023-02-15T01:03:55;99877.66;;;3.02;67.33
13312;BME280;34033;48.672;9.376;2023-02-15T01:06:20;99871.19;;;2.92;67.83
13312;BME280;34033;48.672;9.376;2023-02-15T01:08:46;99871.19;;;2.92;68.59
13312;BME280;34033;48.672;9.376;2023-02-15T01:11:17;99882.03;;;2.89;68.49
13312;BME280;34033;48.672;9.376;2023-02-15T01:13:51;99885.34;;;2.91;68.85
13312;BME280;34033;48.672;9.376;2023-02-15T01:16:17;99886.97;;;2.92;69.56
13312;BME280;34033;48.672;9.376;2023-02-15T01:18:42;99880.00;;;2.94;68.34
13312;BME280;34033;48.672;9.376;2023-02-15T01:21:10;99868.66;;;2.96;69.30
13312;BME280;34033;48.672;9.376;2023-02-15T01:23:36;99876.66;;;2.98;69.19
13312;BME280;34033;48.672;9.376;2023-02-15T01:26:02;99868.34;;;2.98;68.92
13312;BME280;34033;48.672;9.376;2023-02-15T01:28:28;99871.91;;;2.98;68.54
13312;BME280;34033;48.672;9.376;2023-02-15T01:30:53;99873.06;;;2.97;67.94
13312;BME280;34033;48.672;9.376;2023-02-15T01:33:18;99872.53;;;2.95;67.89
13312;BME280;34033;48.672;9.376;2023-02-15T01:35:45;99862.81;;;2.84;67.46
13312;BME280;34033;48.672;9.376;2023-02-15T01:38:12;99865.56;;;2.84;67.33
13312;BME280;34033;48.672;9.376;2023-02-15T01:40:37;99874.97;;;2.83;67.69
13312;BME280;34033;48.672;9.376;2023-02-15T01:43:10;99877.25;;;2.81;68.47
13312;BME280;34033;48.672;9.376;2023-02-15T01:45:36;99872.00;;;2.79;67.63
13312;BME280;34033;48.672;9.376;2023-02-15T01:48:04;99864.03;;;2.78;67.95
13312;BME280;34033;48.672;9.376;2023-02-15T01:50:33;99874.88;;;2.74;67.71
13312;BME280;34033;48.672;9.376;2023-02-15T01:53:13;99869.63;;;2.73;67.79
13312;BME280;34033;48.672;9.376;2023-02-15T01:55:46;99870.25;;;2.70;67.64
13312;BME280;34033;48.672;9.376;2023-02-15T01:58:12;99869.75;;;2.68;67.97
13312;BME280;34033;48.672;9.376;2023-02-15T02:00:39;99862.56;;;2.67;68.40
13312;BME280;34033;48.672;9.376;2023-02-15T02:03:05;99858.69;;;2.68;68.79
13312;BME280;34033;48.672;9.376;2023-02-15T02:05:30;99862.56;;;2.67;68.59
13312;BME280;34033;48.672;9.376;2023-02-15T02:07:58;99866.25;;;2.62;68.11
13312;BME280;34033;48.672;9.376;2023-02-15T02:10:25;99857.66;;;2.64;68.03
13312;BME280;34033;48.672;9.376;2023-02-15T02:13:03;99859.28;;;2.65;68.50
13312;BME280;34033;48.672;9.376;2023-02-15T02:15:58;99859.09;;;2.61;67.09
13312;BME280;34033;48.672;9.376;2023-02-15T02:18:40;99848.97;;;2.57;67.33
13312;BME280;34033;48.672;9.376;2023-02-15T02:38:01;99838.41;;;2.45;67.56
13312;BME280;34033;48.672;9.376;2023-02-15T02:40:39;99840.63;;;2.43;68.34
13312;BME280;34033;48.672;9.376;2023-02-15T02:43:16;99837.88;;;2.43;68.00
13312;BME280;34033;48.672;9.376;2023-02-15T02:45:50;99839.84;;;2.42;66.61
13312;BME280;34033;48.672;9.376;2023-02-15T02:48:21;99846.56;;;2.36;67.29
13312;BME280;34033;48.672;9.376;2023-02-15T02:50:47;99843.28;;;2.34;67.81
13312;BME280;34033;48.672;9.376;2023-02-15T02:53:12;99847.97;;;2.34;68.37
13312;BME280;34033;48.672;9.376;2023-02-15T02:55:46;99845.84;;;2.31;68.16
13312;BME280;34033;48.672;9.376;2023-02-15T03:03:43;99842.25;;;2.30;67.74
13312;BME280;34033;48.672;9.376;2023-02-15T03:06:14;99839.50;;;2.30;68.70
13312;BME280;34033;48.672;9.376;2023-02-15T03:08:47;99839.50;;;2.30;68.52
13312;BME280;34033;48.672;9.376;2023-02-15T03:11:14;99834.25;;;2.29;68.25
13312;BME280;34033;48.672;9.376;2023-02-15T03:13:40;99834.25;;;2.29;68.50
13312;BME280;34033;48.672;9.376;2023-02-15T03:16:06;99830.38;;;2.30;68.19
13312;BME280;34033;48.672;9.376;2023-02-15T03:19:35;99835.09;;;2.29;68.17
13312;BME280;34033;48.672;9.376;2023-02-15T03:21:58;99835.38;;;2.28;68.60
13312;BME280;34033;48.672;9.376;2023-02-15T03:24:54;99833.25;;;2.25;67.18
13312;BME280;34033;48.672;9.376;2023-02-15T03:27:26;99843.22;;;2.21;68.22
13312;BME280;34033;48.672;9.376;2023-02-15T03:29:56;99831.97;;;2.17;67.24
13312;BME280;34033;48.672;9.376;2023-02-15T03:32:23;99840.78;;;2.19;67.47
13312;BME280;34033;48.672;9.376;2023-02-15T03:34:50;99829.31;;;2.12;67.11
13312;BME280;34033;48.672;9.376;2023-02-15T03:40:21;99831.31;;;2.06;68.51
13312;BME280;34033;48.672;9.376;2023-02-15T03:46:13;99830.00;;;2.04;68.79
13312;BME280;34033;48.672;9.376;2023-02-15T03:48:46;99831.94;;;2.03;68.75
13312;BME280;34033;48.672;9.376;2023-02-15T03:51:19;99825.00;;;2.06;69.40
13312;BME280;34033;48.672;9.376;2023-02-15T03:54:11;99827.25;;;2.04;69.35
13312;BME280;34033;48.672;9.376;2023-02-15T03:56:40;99828.88;;;2.05;70.70
13312;BME280;34033;48.672;9.376;2023-02-15T03:59:07;99832.75;;;2.04;71.00
13312;BME280;34033;48.672;9.376;2023-02-15T04:02:08;99838.34;;;1.99;71.65
13312;BME280;34033;48.672;9.376;2023-02-15T04:04:43;99832.59;;;1.95;71.94
13312;BME280;34033;48.672;9.376;2023-02-15T04:07:10;99830.16;;;1.94;72.55
13312;BME280;34033;48.672;9.376;2023-02-15T04:09:35;99828.22;;;1.94;73.81
13312;BME280;34033;48.672;9.376;2023-02-15T04:12:20;99830.28;;;2.02;75.91
13312;BME280;34033;48.672;9.376;2023-02-15T04:14:45;99838.28;;;2.04;74.99
13312;BME280;34033;48.672;9.376;2023-02-15T04:17:29;99834.16;;;2.01;73.54
13312;BME280;34033;48.672;9.376;2023-02-15T04:19:55;99831.13;;;2.03;74.35
13312;BME280;34033;48.672;9.376;2023-02-15T04:22:39;99827.53;;;2.02;74.10
13312;BME280;34033;48.672;9.376;2023-02-15T04:25:23;99817.50;;;1.93;73.76
13312;BME280;34033;48.672;9.376;2023-02-15T04:27:53;99827.09;;;1.95;73.45
13312;BME280;34033;48.672;9.376;2023-02-15T04:30:24;99819.09;;;1.94;74.55
13312;BME280;34033;48.672;9.376;2023-02-15T04:32:50;99815.53;;;1.93;75.89
13312;BME280;34033;48.672;9.376;2023-02-15T04:35:16;99822.09;;;1.97;75.95
13312;BME280;34033;48.672;9.376;2023-02-15T04:37:42;99823.81;;;1.93;75.50
13312;BME280;34033;48.672;9.376;2023-02-15T04:40:11;99817.19;;;1.94;74.25
13312;BME280;34033;48.672;9.376;2023-02-15T04:42:36;99821.03;;;1.93;74.73
13312;BME280;34033;48.672;9.376;2023-02-15T04:45:02;99823.00;;;1.93;73.45
13312;BME280;34033;48.672;9.376;2023-02-15T04:47:28;99821.81;;;1.80;73.93
13312;BME280;34033;48.672;9.376;2023-02-15T04:49:53;99815.28;;;1.76;74.13
13312;BME280;34033;48.672;9.376;2023-02-15T04:52:18;99807.28;;;1.75;74.54
13312;BME280;34033;48.672;9.376;2023-02-15T04:54:44;99809.75;;;1.76;74.95
13312;BME280;34033;48.672;9.376;2023-02-15T04:57:10;99808.69;;;1.72;74.88
13312;BME280;34033;48.672;9.376;2023-02-15T04:59:35;99821.16;;;1.70;74.79
13312;BME280;34033;48.672;9.376;2023-02-15T05:02:01;99809.53;;;1.73;73.93
13312;BME280;34033;48.672;9.376;2023-02-15T05:04:26;99811.91;;;1.98;78.86
13312;BME280;34033;48.672;9.376;2023-02-15T05:06:52;99814.72;;;2.58;82.98
13312;BME280;34033;48.672;9.376;2023-02-15T05:09:17;99807.03;;;3.09;80.15
13312;BME280;34033;48.672;9.376;2023-02-15T05:11:42;99808.16;;;3.35;78.05
13312;BME280;34033;48.672;9.376;2023-02-15T05:14:08;99806.91;;;3.42;75.00
13312;BME280;34033;48.672;9.376;2023-02-15T05:16:34;99799.13;;;3.44;73.36
13312;BME280;34033;48.672;9.376;2023-02-15T05:18:59;99798.50;;;3.47;72.24
13312;BME280;34033;48.672;9.376;2023-02-15T05:21:24;99795.84;;;3.42;71.26
13312;BME280;34033;48.672;9.376;2023-02-15T05:23:50;99807.72;;;3.42;71.14
13312;BME280;34033;48.672;9.376;2023-02-15T05:26:21;99794.34;;;3.35;69.84
13312;BME280;34033;48.672;9.376;2023-02-15T05:29:05;99792.16;;;3.32;70.10
13312;BME280;34033;48.672;9.376;2023-02-15T05:31:31;99793.63;;;3.30;68.77
13312;BME280;34033;48.672;9.376;2023-02-15T05:33:57;99790.75;;;3.35;68.98
13312;BME280;34033;48.672;9.376;2023-02-15T05:36:23;99797.28;;;3.39;68.81
13312;BME280;34033;48.672;9.376;2023-02-15T05:38:48;99788.69;;;3.41;68.14
13312;BME280;34033;48.672;9.376;2023-02-15T05:41:14;99800.88;;;3.40;67.55
13312;BME280;34033;48.672;9.376;2023-02-15T05:43:39;99803.63;;;3.40;67.80
13312;BME280;34033;48.672;9.376;2023-02-15T05:46:05;99806.69;;;3.38;69.65
13312;BME280;34033;48.672;9.376;2023-02-15T05:48:31;99801.88;;;3.44;70.07
13312;BME280;34033;48.672;9.376;2023-02-15T05:50:59;99812.22;;;3.38;68.94
13312;BME280;34033;48.672;9.376;2023-02-15T05:53:25;99803.94;;;3.38;68.42
13312;BME280;34033;48.672;9.376;2023-02-15T05:55:51;99806.91;;;3.42;69.26
13312;BME280;34033;48.672;9.376;2023-02-15T05:58:16;99807.53;;;3.39;68.03
13312;BME280;34033;48.672;9.376;2023-02-15T06:00:42;99811.41;;;3.38;71.42
13312;BME280;34033;48.672;9.376;2023-02-15T06:03:07;99808.88;;;3.27;70.81
13312;BME280;34033;48.672;9.376;2023-02-15T06:05:32;99819.41;;;3.25;71.07
13312;BME280;34033;48.672;9.376;2023-02-15T06:07:58;99821.69;;;3.23;71.19
13312;BME280;34033;48.672;9.376;2023-02-15T06:10:23;99820.03;;;3.22;70.11
13312;BME280;34033;48.672;9.376;2023-02-15T06:12:48;99809.50;;;3.24;71.37
13312;BME280;34033;48.672;9.376;2023-02-15T06:15:14;99809.38;;;3.29;70.05
13312;BME280;34033;48.672;9.376;2023-02-15T06:17:42;99814.81;;;3.34;69.21
13312;BME280;34033;48.672;9.376;2023-02-15T06:20:09;99818.28;;;3.40;70.70
13312;BME280;34033;48.672;9.376;2023-02-15T06:22:34;99821.88;;;3.41;70.13
13312;BME280;34033;48.672;9.376;2023-02-15T06:24:59;99825.44;;;3.41;69.03
13312;BME280;34033;48.672;9.376;2023-02-15T06:27:25;99832.91;;;3.41;70.84
13312;BME280;34033;48.672;9.376;2023-02-15T06:29:50;99830.16;;;3.41;69.90
13312;BME280;34033;48.672;9.376;2023-02-15T06:32:15;99835.16;;;3.52;70.05
13312;BME280;34033;48.672;9.376;2023-02-15T06:34:41;99832.06;;;3.54;69.84
13312;BME280;34033;48.672;9.376;2023-02-15T06:37:06;99838.28;;;3.59;69.34
13312;BME280;34033;48.672;9.376;2023-02-15T06:39:33;99838.09;;;3.56;70.91
13312;BME280;34033;48.672;9.376;2023-02-15T06:41:58;99840.25;;;3.59;68.98
13312;BME280;34033;48.672;9.376;2023-02-15T06:44:24;99839.22;;;3.55;69.42
13312;BME280;34033;48.672;9.376;2023-02-15T06:46:49;99842.00;;;3.55;68.11
13312;BME280;34033;48.672;9.376;2023-02-15T06:49:14;99838.75;;;3.53;66.92
13312;BME280;34033;48.672;9.376;2023-02-15T06:51:40;99836.59;;;3.50;67.33
13312;BME280;34033;48.672;9.376;2023-02-15T06:54:05;99839.75;;;3.57;68.63
13312;BME280;34033;48.672;9.376;2023-02-15T06:56:30;99840.16;;;3.50;68.45
13312;BME280;34033;48.672;9.376;2023-02-15T06:58:55;99847.63;;;3.50;68.81
13312;BME280;34033;48.672;9.376;2023-02-15T07:01:21;99850.81;;;3.57;69.13
13312;BME280;34033;48.672;9.376;2023-02-15T07:03:46;99851.53;;;3.62;69.19
13312;BME280;34033;48.672;9.376;2023-02-15T07:06:12;99851.81;;;3.61;68.14
13312;BME280;34033;48.672;9.376;2023-02-15T07:08:38;99851.69;;;3.66;68.26
13312;BME280;34033;48.672;9.376;2023-02-15T07:11:04;99849.09;;;3.83;69.25
13312;BME280;34033;48.672;9.376;2023-02-15T07:13:49;99844.16;;;3.94;68.37
13312;BME280;34033;48.672;9.376;2023-02-15T07:16:14;99844.44;;;3.92;67.42
13312;BME280;34033;48.672;9.376;2023-02-15T07:18:39;99846.78;;;3.99;68.08
13312;BME280;34033;48.672;9.376;2023-02-15T07:21:06;99849.88;;;3.97;67.50
13312;BME280;34033;48.672;9.376;2023-02-15T07:23:34;99853.28;;;3.94;67.04
13312;BME280;34033;48.672;9.376;2023-02-15T07:26:00;99855.72;;;3.96;66.59
13312;BME280;34033;48.672;9.376;2023-02-15T07:28:27;99847.09;;;3.97;66.50
13312;BME280;34033;48.672;9.376;2023-02-15T07:30:52;99845.50;;;3.96;65.78
13312;BME280;34033;48.672;9.376;2023-02-15T07:33:17;99846.09;;;3.93;65.04
13312;BME280;34033;48.672;9.376;2023-02-15T07:35:49;99850.38;;;3.99;66.47
13312;BME280;34033;48.672;9.376;2023-02-15T07:38:15;99849.78;;;4.02;65.74
13312;BME280;34033;48.672;9.376;2023-02-15T07:40:41;99843.41;;;4.02;65.08
13312;BME280;34033;48.672;9.376;2023-02-15T07:43:07;99847.22;;;3.92;65.17
13312;BME280;34033;48.672;9.376;2023-02-15T07:45:32;99844.56;;;3.87;66.88
13312;BME280;34033;48.672;9.376;2023-02-15T07:47:57;99839.03;;;3.87;65.44
13312;BME280;34033;48.672;9.376;2023-02-15T07:50:23;99838.56;;;3.85;65.29
13312;BME280;34033;48.672;9.376;2023-02-15T07:52:48;99835.28;;;3.83;65.56
13312;BME280;34033;48.672;9.376;2023-02-15T07:55:13;99833.63;;;3.82;66.07
13312;BME280;34033;48.672;9.376;2023-02-15T07:57:46;99835.44;;;3.87;65.31
13312;BME280;34033;48.672;9.376;2023-02-15T08:00:13;99837.91;;;3.88;65.60
13312;BME280;34033;48.672;9.376;2023-02-15T08:02:39;99832.47;;;3.97;65.29
13312;BME280;34033;48.672;9.376;2023-02-15T08:05:05;99837.66;;;3.98;65.33
13312;BME280;34033;48.672;9.376;2023-02-15T08:07:31;99832.34;;;4.02;67.51
13312;BME280;34033;48.672;9.376;2023-02-15T08:09:56;99834.34;;;4.10;65.54
13312;BME280;34033;48.672;9.376;2023-02-15T08:12:21;99827.03;;;4.14;65.26
13312;BME280;34033;48.672;9.376;2023-02-15T08:14:47;99821.38;;;4.19;65.49
13312;BME280;34033;48.672;9.376;2023-02-15T08:17:12;99825.47;;;4.22;65.24
13312;BME280;34033;48.672;9.376;2023-02-15T08:19:37;99824.66;;;4.21;65.13
13312;BME280;34033;48.672;9.376;2023-02-15T08:22:07;99824.84;;;4.25;65.43
13312;BME280;34033;48.672;9.376;2023-02-15T08:24:35;99833.03;;;4.30;64.68
13312;BME280;34033;48.672;9.376;2023-02-15T08:27:02;99829.31;;;4.34;64.93
13312;BME280;34033;48.672;9.376;2023-02-15T08:29:29;99822.44;;;4.32;64.54
13312;BME280;34033;48.672;9.376;2023-02-15T08:31:58;99830.75;;;4.32;64.70
13312;BME280;34033;48.672;9.376;2023-02-15T08:34:24;99827.84;;;4.37;65.20
13312;BME280;34033;48.672;9.376;2023-02-15T08:36:49;99829.66;;;4.41;64.79
13312;BME280;34033;48.672;9.376;2023-02-15T08:39:15;99826.47;;;4.48;64.81
13312;BME280;34033;48.672;9.376;2023-02-15T08:41:45;99826.66;;;4.51;64.73
13312;BME280;34033;48.672;9.376;2023-02-15T08:44:11;99833.06;;;4.60;64.81
13312;BME280;34033;48.672;9.376;2023-02-15T08:46:39;99828.06;;;4.71;64.69
13312;BME280;34033;48.672;9.376;2023-02-15T08:49:05;99820.81;;;4.84;65.85
13312;BME280;34033;48.672;9.376;2023-02-15T08:51:33;99811.06;;;4.95;65.03
13312;BME280;34033;48.672;9.376;2023-02-15T08:54:01;99818.78;;;5.07;65.17
13312;BME280;34033;48.672;9.376;2023-02-15T08:56:31;99821.72;;;5.19;64.40
13312;BME280;34033;48.672;9.376;2023-02-15T08:58:58;99815.88;;;5.20;63.56
13312;BME280;34033;48.672;9.376;2023-02-15T09:01:25;99818.63;;;5.12;63.24
13312;BME280;34033;48.672;9.376;2023-02-15T09:03:55;99817.81;;;5.11;63.22
13312;BME280;34033;48.672;9.376;2023-02-15T09:06:22;99816.69;;;5.12;63.61
13312;BME280;34033;48.672;9.376;2023-02-15T09:08:49;99811.28;;;5.16;63.29
13312;BME280;34033;48.672;9.376;2023-02-15T09:11:22;99807.72;;;5.24;63.65
13312;BME280;34033;48.672;9.376;2023-02-15T09:13:51;99811.81;;;5.26;63.52
13312;BME280;34033;48.672;9.376;2023-02-15T09:16:17;99816.91;;;5.33;63.58
13312;BME280;34033;48.672;9.376;2023-02-15T09:18:43;99812.84;;;5.39;63.52
13312;BME280;34033;48.672;9.376;2023-02-15T09:21:13;99807.47;;;5.51;63.35
13312;BME280;34033;48.672;9.376;2023-02-15T09:23:43;99802.09;;;5.63;62.78
13312;BME280;34033;48.672;9.376;2023-02-15T09:26:12;99803.91;;;5.76;62.32
13312;BME280;34033;48.672;9.376;2023-02-15T09:28:38;99802.16;;;5.89;62.36
13312;BME280;34033;48.672;9.376;2023-02-15T09:31:13;99794.47;;;5.95;62.16
13312;BME280;34033;48.672;9.376;2023-02-15T09:33:40;99787.63;;;6.01;61.66
13312;BME280;34033;48.672;9.376;2023-02-15T09:36:17;99787.28;;;6.11;61.92
13312;BME280;34033;48.672;9.376;2023-02-15T09:38:44;99782.03;;;6.18;62.08
13312;BME280;34033;48.672;9.376;2023-02-15T09:49:58;99781.06;;;6.78;62.12
13312;BME280;34033;48.672;9.376;2023-02-15T10:16:55;99756.00;;;7.66;60.10
13312;BME280;34033;48.672;9.376;2023-02-15T10:25:34;99748.72;;;7.94;59.61
13312;BME280;34033;48.672;9.376;2023-02-15T10:28:12;99748.75;;;8.06;59.64
13312;BME280;34033;48.672;9.376;2023-02-15T10:30:48;99738.38;;;8.15;58.83
13312;BME280;34033;48.672;9.376;2023-02-15T10:49:50;99713.66;;;8.83;57.58
13312;BME280;34033;48.672;9.376;2023-02-15T10:58:02;99709.72;;;9.08;57.00
13312;BME280;34033;48.672;9.376;2023-02-15T11:00:34;99691.69;;;9.18;57.14
13312;BME280;34033;48.672;9.376;2023-02-15T11:03:42;99685.03;;;9.35;57.17
13312;BME280;34033;48.672;9.376;2023-02-15T11:06:17;99685.69;;;9.44;57.21
13312;BME280;34033;48.672;9.376;2023-02-15T11:08:51;99682.31;;;9.50;57.13
13312;BME280;34033;48.672;9.376;2023-02-15T11:11:29;99684.97;;;9.59;57.05
13312;BME280;34033;48.672;9.376;2023-02-15T11:14:05;99681.81;;;9.60;56.35
13312;BME280;34033;48.672;9.376;2023-02-15T11:16:38;99680.50;;;9.70;57.07
13312;BME280;34033;48.672;9.376;2023-02-15T11:19:11;99669.66;;;9.81;56.17
13312;BME280;34033;48.672;9.376;2023-02-15T11:21:48;99672.28;;;9.89;56.05
13312;BME280;34033;48.672;9.376;2023-02-15T11:24:17;99665.72;;;9.97;55.71
13312;BME280;34033;48.672;9.376;2023-02-15T11:27:21;99659.97;;;10.06;55.69
13312;BME280;34033;48.672;9.376;2023-02-15T11:30:13;99655.03;;;10.15;55.31
13312;BME280;34033;48.672;9.376;2023-02-15T11:32:48;99660.97;;;10.14;54.55
13312;BME280;34033;48.672;9.376;2023-02-15T11:35:29;99651.28;;;10.23;54.28
13312;BME280;34033;48.672;9.376;2023-02-15T11:38:05;99649.03;;;10.29;53.71
13312;BME280;34033;48.672;9.376;2023-02-15T11:40:43;99647.06;;;10.29;53.56
13312;BME280;34033;48.672;9.376;2023-02-15T11:43:17;99644.69;;;10.31;53.61
13312;BME280;34033;48.672;9.376;2023-02-15T11:45:45;99642.56;;;10.40;53.49
13312;BME280;34033;48.672;9.376;2023-02-15T11:48:13;99636.34;;;10.47;53.05
13312;BME280;34033;48.672;9.376;2023-02-15T11:50:39;99636.06;;;10.52;52.80
13312;BME280;34033;48.672;9.376;2023-02-15T11:53:17;99642.38;;;10.49;52.32
13312;BME280;34033;48.672;9.376;2023-02-15T11:55:45;99639.41;;;10.58;53.54
13312;BME280;34033;48.672;9.376;2023-02-15T12:00:46;99631.16;;;10.80;52.27
13312;BME280;34033;48.672;9.376;2023-02-15T12:03:15;99631.41;;;10.91;52.86
13312;BME280;34033;48.672;9.376;2023-02-15T12:05:45;99625.41;;;11.08;53.31
13312;BME280;34033;48.672;9.376;2023-02-15T12:08:17;99632.56;;;11.25;52.14
13312;BME280;34033;48.672;9.376;2023-02-15T12:10:57;99624.94;;;11.41;52.44
13312;BME280;34033;48.672;9.376;2023-02-15T12:13:23;99627.88;;;11.48;52.33
13312;BME280;34033;48.672;9.376;2023-02-15T12:15:51;99622.81;;;11.54;52.07
13312;BME280;34033;48.672;9.376;2023-02-15T12:18:21;99612.63;;;11.65;51.90
13312;BME280;34033;48.672;9.376;2023-02-15T12:20:50;99608.91;;;11.77;51.88
13312;BME280;34033;48.672;9.376;2023-02-15T12:23:15;99606.28;;;11.87;50.61
13312;BME280;34033;48.672;9.376;2023-02-15T12:25:50;99605.63;;;11.94;49.13
13312;BME280;34033;48.672;9.376;2023-02-15T12:28:24;99607.25;;;11.95;48.33
13312;BME280;34033;48.672;9.376;2023-02-15T12:30:52;99601.47;;;12.07;47.71
13312;BME280;34033;48.672;9.376;2023-02-15T12:36:03;99605.72;;;12.20;46.52
13312;BME280;34033;48.672;9.376;2023-02-15T12:38:31;99609.47;;;12.28;47.88
13312;BME280;34033;48.672;9.376;2023-02-15T12:43:34;99599.22;;;12.62;48.21
13312;BME280;34033;48.672;9.376;2023-02-15T12:46:26;99596.63;;;12.76;47.34
13312;BME280;34033;48.672;9.376;2023-02-15T12:51:50;99591.44;;;13.04;45.62
13312;BME280;34033;48.672;9.376;2023-02-15T12:54:37;99588.97;;;13.25;46.97
13312;BME280;34033;48.672;9.376;2023-02-15T12:59:52;99575.63;;;13.49;46.15
13312;BME280;34033;48.672;9.376;2023-02-15T13:02:22;99570.50;;;13.58;46.33
13312;BME280;34033;48.672;9.376;2023-02-15T13:04:49;99564.16;;;13.64;45.94
13312;BME280;34033;48.672;9.376;2023-02-15T13:07:15;99562.25;;;13.72;45.06
13312;BME280;34033;48.672;9.376;2023-02-15T13:09:40;99564.41;;;13.86;45.13
13312;BME280;34033;48.672;9.376;2023-02-15T13:12:21;99554.91;;;14.01;44.17
13312;BME280;34033;48.672;9.376;2023-02-15T13:14:48;99557.09;;;14.18;44.50
13312;BME280;34033;48.672;9.376;2023-02-15T13:17:17;99545.56;;;14.34;43.72
13312;BME280;34033;48.672;9.376;2023-02-15T13:19:50;99542.09;;;14.44;43.56
13312;BME280;34033;48.672;9.376;2023-02-15T13:22:22;99538.56;;;14.57;43.52
13312;BME280;34033;48.672;9.376;2023-02-15T13:24:57;99532.63;;;14.70;43.05
13312;BME280;34033;48.672;9.376;2023-02-15T13:27:29;99525.88;;;14.81;41.82
13312;BME280;34033;48.672;9.376;2023-02-15T13:29:58;99520.34;;;14.99;42.85
13312;BME280;34033;48.672;9.376;2023-02-15T13:32:34;99520.41;;;15.13;43.63
13312;BME280;34033;48.672;9.376;2023-02-15T13:35:04;99522.47;;;15.23;43.37
13312;BME280;34033;48.672;9.376;2023-02-15T13:43:00;99520.22;;;15.57;42.24
13312;BME280;34033;48.672;9.376;2023-02-15T13:45:39;99513.81;;;15.74;42.05
13312;BME280;34033;48.672;9.376;2023-02-15T13:56:28;99501.81;;;16.20;41.18
13312;BME280;34033;48.672;9.376;2023-02-15T13:59:16;99502.59;;;16.35;40.49
13312;BME280;34033;48.672;9.376;2023-02-15T14:10:16;99483.22;;;16.76;39.88
13312;BME280;34033;48.672;9.376;2023-02-15T14:13:14;99490.44;;;16.91;39.67
13312;BME280;34033;48.672;9.376;2023-02-15T14:15:49;99492.84;;;17.03;39.51
13312;BME280;34033;48.672;9.376;2023-02-15T14:21:06;99487.56;;;17.12;38.46
13312;BME280;34033;48.672;9.376;2023-02-15T14:32:14;99480.47;;;17.56;38.45
13312;BME280;34033;48.672;9.376;2023-02-15T14:34:44;99488.91;;;17.70;37.48
13312;BME280;34033;48.672;9.376;2023-02-15T14:37:12;99477.13;;;17.82;37.54
13312;BME280;34033;48.672;9.376;2023-02-15T14:39:47;99483.13;;;17.91;38.14
13312;BME280;34033;48.672;9.376;2023-02-15T14:42:39;99479.78;;;18.03;37.44
13312;BME280;34033;48.672;9.376;2023-02-15T14:48:16;99480.84;;;18.23;37.12
13312;BME280;34033;48.672;9.376;2023-02-15T14:50:46;99480.75;;;18.34;38.48
13312;BME280;34033;48.672;9.376;2023-02-15T14:56:17;99479.00;;;18.51;36.60
13312;BME280;34033;48.672;9.376;2023-02-15T15:01:33;99476.09;;;18.61;36.23
13312;BME280;34033;48.672;9.376;2023-02-15T15:04:06;99474.06;;;18.62;35.72
13312;BME280;34033;48.672;9.376;2023-02-15T15:06:36;99472.38;;;18.68;34.79
13312;BME280;34033;48.672;9.376;2023-02-15T15:09:12;99478.34;;;18.77;35.01
13312;BME280;34033;48.672;9.376;2023-02-15T15:11:54;99474.66;;;18.80;35.44
13312;BME280;34033;48.672;9.376;2023-02-15T15:16:58;99472.63;;;19.18;39.99
13312;BME280;34033;48.672;9.376;2023-02-15T15:22:25;99470.88;;;19.28;34.90
13312;BME280;34033;48.672;9.376;2023-02-15T15:24:57;99470.13;;;19.24;33.72
13312;BME280;34033;48.672;9.376;2023-02-15T15:46:24;99465.91;;;19.05;34.54
13312;BME280;34033;48.672;9.376;2023-02-15T15:49:01;99465.63;;;18.92;33.81
13312;BME280;34033;48.672;9.376;2023-02-15T15:51:31;99473.53;;;18.74;34.07
13312;BME280;34033;48.672;9.376;2023-02-15T15:53:58;99466.81;;;18.54;34.67
13312;BME280;34033;48.672;9.376;2023-02-15T15:56:31;99479.09;;;18.40;35.10
13312;BME280;34033;48.672;9.376;2023-02-15T15:59:07;99472.38;;;18.23;34.90
13312;BME280;34033;48.672;9.376;2023-02-15T16:01:43;99478.59;;;18.01;35.62
13312;BME280;34033;48.672;9.376;2023-02-15T16:04:31;99475.50;;;17.81;36.22
13312;BME280;34033;48.672;9.376;2023-02-15T16:06:58;99471.59;;;17.61;36.44
13312;BME280;34033;48.672;9.376;2023-02-15T16:09:26;99471.69;;;17.39;36.65
13312;BME280;34033;48.672;9.376;2023-02-15T16:11:53;99474.59;;;17.22;36.91